Time;durP1;ratioP1;P1;durP2;ratioP2;P2;SDS_P1;SDS_P2;PMS_P1;PMS_P2;Temp;Humidity;BMP_temperature;BMP_pressure;BME280_temperature;BME280_humidity;BME280_pressure;Samples;Min_cycle;Max_cycle;Signal;HPM_P1;HPM_P2
2021/08/13 00:01:42;;;;;;;556.72;450.95;;;;;;;;;;5029496;28;20136;-78
2021/08/13 00:04:09;;;;;;;554.25;449.70;;;;;;;;;;5024521;28;20051;-77
2021/08/13 00:06:37;;;;;;;555.78;449.63;;;;;;;;;;5032252;28;20029;-78
2021/08/13 00:09:03;;;;;;;556.75;450.98;;;;;;;;;;5031731;28;20040;-77
2021/08/13 00:11:29;;;;;;;554.28;450.85;;;;;;;;;;5033498;28;20041;-77
2021/08/13 00:13:55;;;;;;;554.00;451.80;;;;;;;;;;5022094;28;20660;-77
2021/08/13 00:16:21;;;;;;;554.60;450.02;;;;;;;;;;5037018;28;20036;-78
2021/08/13 00:18:47;;;;;;;554.20;449.90;;;;;;;;;;5033162;28;20040;-77
2021/08/13 00:21:13;;;;;;;552.67;441.95;;;;;;;;;;5032798;28;20013;-77
2021/08/13 00:23:39;;;;;;;555.88;450.67;;;;;;;;;;5033383;28;20031;-77
2021/08/13 00:26:05;;;;;;;556.33;448.45;;;;;;;;;;5026411;28;20383;-78
2021/08/13 00:28:31;;;;;;;556.22;449.35;;;;;;;;;;5033135;28;20530;-77
2021/08/13 00:30:56;;;;;;;555.78;450.38;;;;;;;;;;5032776;28;20052;-78
2021/08/13 00:33:22;;;;;;;559.78;453.20;;;;;;;;;;5031631;28;20033;-78
2021/08/13 00:35:48;;;;;;;555.78;451.40;;;;;;;;;;5047511;28;20029;-78
2021/08/13 00:38:14;;;;;;;557.50;450.75;;;;;;;;;;5032884;28;20056;-78
2021/08/13 00:40:40;;;;;;;555.08;453.50;;;;;;;;;;5033461;28;20021;-77
2021/08/13 00:43:06;;;;;;;551.58;438.45;;;;;;;;;;5031229;28;20487;-77
2021/08/13 00:45:32;;;;;;;553.00;443.35;;;;;;;;;;5045178;28;20472;-78
2021/08/13 00:47:58;;;;;;;553.75;449.30;;;;;;;;;;5031537;28;20471;-77
2021/08/13 00:50:24;;;;;;;559.17;456.85;;;;;;;;;;5031825;28;20522;-77
2021/08/13 00:52:50;;;;;;;557.92;453.90;;;;;;;;;;5032192;28;20421;-77
2021/08/13 00:55:16;;;;;;;552.95;442.40;;;;;;;;;;5029884;28;20025;-78
2021/08/13 00:57:42;;;;;;;549.28;432.98;;;;;;;;;;5032482;28;20068;-77
2021/08/13 01:00:09;;;;;;;553.45;438.38;;;;;;;;;;5028995;28;20044;-78
2021/08/13 01:02:35;;;;;;;553.53;440.20;;;;;;;;;;5033961;28;20032;-78
2021/08/13 01:05:01;;;;;;;555.45;446.80;;;;;;;;;;5031778;28;20044;-78
2021/08/13 01:07:27;;;;;;;552.80;442.90;;;;;;;;;;5033319;28;20025;-77
2021/08/13 01:09:53;;;;;;;551.22;439.42;;;;;;;;;;5032620;28;20436;-77
2021/08/13 01:12:34;;;;;;;551.20;437.15;;;;;;;;;;5032221;28;20032;-78
2021/08/13 01:15:03;;;;;;;553.70;442.83;;;;;;;;;;5030632;28;20040;-78
2021/08/13 01:17:31;;;;;;;552.72;442.33;;;;;;;;;;5031838;28;20028;-78
2021/08/13 01:20:10;;;;;;;552.78;442.50;;;;;;;;;;5031206;28;20444;-77
2021/08/13 01:22:45;;;;;;;552.60;435.33;;;;;;;;;;5033058;28;20021;-78
2021/08/13 01:25:12;;;;;;;550.92;435.25;;;;;;;;;;5029203;28;20067;-77
2021/08/13 01:27:45;;;;;;;550.55;430.77;;;;;;;;;;5032125;28;20396;-78
2021/08/13 01:30:12;;;;;;;550.40;435.73;;;;;;;;;;5017681;28;20037;-78
2021/08/13 01:32:43;;;;;;;550.28;435.23;;;;;;;;;;5048423;28;20386;-78
2021/08/13 01:35:12;;;;;;;551.35;434.85;;;;;;;;;;5030657;28;20095;-78
2021/08/13 01:37:39;;;;;;;555.50;447.38;;;;;;;;;;5021924;28;20031;-78
2021/08/13 01:40:07;;;;;;;550.55;434.75;;;;;;;;;;5047710;28;20124;-78
2021/08/13 01:42:34;;;;;;;552.05;440.27;;;;;;;;;;5030274;28;20044;-78
2021/08/13 01:45:01;;;;;;;548.10;429.85;;;;;;;;;;5031118;28;20025;-78
2021/08/13 01:47:28;;;;;;;549.92;432.77;;;;;;;;;;5032273;28;20044;-77
2021/08/13 01:49:54;;;;;;;548.10;429.00;;;;;;;;;;5029519;28;20102;-77
2021/08/13 01:52:21;;;;;;;550.75;433.90;;;;;;;;;;5031867;28;20493;-78
2021/08/13 01:54:49;;;;;;;553.25;434.17;;;;;;;;;;5049213;28;20036;-78
2021/08/13 01:57:16;;;;;;;550.72;429.13;;;;;;;;;;5031743;28;20061;-77
2021/08/13 01:59:43;;;;;;;549.13;430.15;;;;;;;;;;5030676;28;20103;-78
2021/08/13 02:02:09;;;;;;;553.83;436.98;;;;;;;;;;5031842;28;20116;-77
2021/08/13 02:04:36;;;;;;;553.38;439.45;;;;;;;;;;5031026;28;20071;-78
2021/08/13 02:07:02;;;;;;;549.88;429.92;;;;;;;;;;5032536;28;20663;-78
2021/08/13 02:09:28;;;;;;;550.88;429.52;;;;;;;;;;5030261;28;20029;-78
2021/08/13 02:11:54;;;;;;;547.83;429.60;;;;;;;;;;5045663;28;20043;-77
2021/08/13 02:14:21;;;;;;;548.15;424.30;;;;;;;;;;5032294;28;20029;-78
2021/08/13 02:16:49;;;;;;;548.92;427.77;;;;;;;;;;5025063;28;20021;-78
2021/08/13 02:19:19;;;;;;;548.70;419.70;;;;;;;;;;5046930;28;20512;-78
2021/08/13 02:21:46;;;;;;;551.63;430.67;;;;;;;;;;5014750;28;20064;-78
2021/08/13 02:24:13;;;;;;;549.03;427.73;;;;;;;;;;5032643;28;20041;-78
2021/08/13 02:26:40;;;;;;;547.47;420.60;;;;;;;;;;5026807;28;20119;-80
2021/08/13 02:29:06;;;;;;;549.88;425.98;;;;;;;;;;5023469;28;20028;-79
2021/08/13 02:31:33;;;;;;;548.97;422.75;;;;;;;;;;5053163;28;20013;-79
2021/08/13 02:33:59;;;;;;;548.22;420.10;;;;;;;;;;5024770;28;20025;-81
2021/08/13 02:36:30;;;;;;;549.90;426.70;;;;;;;;;;5034074;28;20025;-80
2021/08/13 02:39:01;;;;;;;550.45;427.67;;;;;;;;;;5047933;28;20033;-77
2021/08/13 02:41:31;;;;;;;553.40;432.85;;;;;;;;;;5024361;28;20036;-78
2021/08/13 02:43:58;;;;;;;547.25;417.17;;;;;;;;;;5030652;28;20029;-77
2021/08/13 02:46:27;;;;;;;552.33;424.83;;;;;;;;;;5052546;28;20081;-77
2021/08/13 02:48:54;;;;;;;549.47;420.55;;;;;;;;;;5031980;28;20025;-77
2021/08/13 02:51:20;;;;;;;551.38;426.65;;;;;;;;;;5021895;28;20025;-78
2021/08/13 02:53:48;;;;;;;545.53;416.65;;;;;;;;;;5032170;28;20035;-78
2021/08/13 02:56:15;;;;;;;545.97;416.98;;;;;;;;;;5040043;28;20041;-78
2021/08/13 02:58:44;;;;;;;549.42;422.77;;;;;;;;;;5031316;28;20090;-77
2021/08/13 03:01:13;;;;;;;544.45;418.10;;;;;;;;;;5040283;28;20029;-77
2021/08/13 03:03:39;;;;;;;550.97;429.13;;;;;;;;;;5046384;28;20362;-77
2021/08/13 03:06:06;;;;;;;548.40;425.42;;;;;;;;;;5032152;28;20033;-78
2021/08/13 03:08:32;;;;;;;548.92;429.02;;;;;;;;;;5038756;28;20024;-77
2021/08/13 03:10:59;;;;;;;546.83;419.60;;;;;;;;;;5041546;28;20043;-77
2021/08/13 03:13:25;;;;;;;548.67;421.17;;;;;;;;;;5033871;28;20031;-77
2021/08/13 03:15:52;;;;;;;547.10;421.08;;;;;;;;;;5047733;28;20095;-77
2021/08/13 03:18:18;;;;;;;546.72;424.02;;;;;;;;;;5031108;28;20060;-77
2021/08/13 03:20:44;;;;;;;542.63;417.95;;;;;;;;;;5030959;28;20036;-78
2021/08/13 03:23:11;;;;;;;547.15;424.70;;;;;;;;;;5047570;28;20021;-78
2021/08/13 03:25:37;;;;;;;547.53;424.70;;;;;;;;;;5039068;28;20082;-78
2021/08/13 03:28:06;;;;;;;544.45;422.30;;;;;;;;;;5026565;28;20717;-77
2021/08/13 03:30:37;;;;;;;543.88;419.00;;;;;;;;;;5030533;28;20032;-78
2021/08/13 03:33:04;;;;;;;546.58;418.33;;;;;;;;;;5030013;28;20063;-78
2021/08/13 03:35:30;;;;;;;546.90;422.45;;;;;;;;;;5032015;28;20037;-78
2021/08/13 03:37:56;;;;;;;544.35;416.65;;;;;;;;;;5022428;28;20079;-78
2021/08/13 03:40:22;;;;;;;545.55;414.75;;;;;;;;;;5030757;28;20502;-77
2021/08/13 03:42:49;;;;;;;543.65;416.23;;;;;;;;;;5023948;28;20451;-78
2021/08/13 03:45:15;;;;;;;540.15;406.02;;;;;;;;;;5030156;28;20053;-78
2021/08/13 03:47:41;;;;;;;545.45;416.48;;;;;;;;;;5046648;28;20493;-78
2021/08/13 03:50:07;;;;;;;545.50;421.58;;;;;;;;;;5043248;28;20419;-77
2021/08/13 03:52:33;;;;;;;543.75;414.13;;;;;;;;;;5018897;28;20037;-77
2021/08/13 03:54:59;;;;;;;546.88;424.45;;;;;;;;;;5035209;28;20043;-78
2021/08/13 03:57:26;;;;;;;547.42;421.05;;;;;;;;;;5026081;28;20036;-79
2021/08/13 03:59:52;;;;;;;549.90;430.20;;;;;;;;;;5047878;28;20025;-78
2021/08/13 04:02:19;;;;;;;543.00;413.23;;;;;;;;;;5029888;28;20299;-81
2021/08/13 04:04:45;;;;;;;546.92;420.65;;;;;;;;;;5046560;28;20056;-78
2021/08/13 04:07:11;;;;;;;545.28;417.20;;;;;;;;;;5028878;28;20084;-77
2021/08/13 04:09:37;;;;;;;543.10;410.50;;;;;;;;;;5031166;28;20123;-77
2021/08/13 04:12:04;;;;;;;545.25;417.23;;;;;;;;;;5030334;28;20072;-78
2021/08/13 04:14:30;;;;;;;543.40;409.60;;;;;;;;;;5030398;28;20421;-77
2021/08/13 04:16:56;;;;;;;542.53;414.27;;;;;;;;;;5022556;28;20029;-78
2021/08/13 04:19:21;;;;;;;541.92;413.20;;;;;;;;;;5038152;28;20375;-78
2021/08/13 04:21:47;;;;;;;542.72;412.13;;;;;;;;;;5030240;28;20029;-77
2021/08/13 04:24:13;;;;;;;543.17;415.48;;;;;;;;;;5030964;28;20021;-78
2021/08/13 04:26:39;;;;;;;542.10;414.27;;;;;;;;;;5029320;28;20025;-78
2021/08/13 04:29:05;;;;;;;542.60;414.73;;;;;;;;;;5032261;28;20037;-77
2021/08/13 04:31:31;;;;;;;545.75;419.48;;;;;;;;;;5029343;28;20028;-78
2021/08/13 04:33:57;;;;;;;539.20;405.00;;;;;;;;;;5037374;28;20036;-77
2021/08/13 04:36:23;;;;;;;541.70;408.65;;;;;;;;;;5032717;28;20037;-77
2021/08/13 04:38:49;;;;;;;543.05;415.13;;;;;;;;;;5033492;28;20051;-77
2021/08/13 04:41:15;;;;;;;544.50;414.08;;;;;;;;;;5038127;28;20448;-77
2021/08/13 04:43:41;;;;;;;541.15;406.33;;;;;;;;;;5045580;28;20013;-77
2021/08/13 04:46:07;;;;;;;542.05;411.00;;;;;;;;;;5029115;28;20059;-78
2021/08/13 04:48:33;;;;;;;543.78;412.30;;;;;;;;;;5048363;28;20051;-77
2021/08/13 04:50:59;;;;;;;545.17;416.42;;;;;;;;;;5033446;28;20105;-77
2021/08/13 04:53:25;;;;;;;544.67;414.27;;;;;;;;;;5051186;28;20617;-78
2021/08/13 04:55:51;;;;;;;546.10;425.30;;;;;;;;;;5035795;28;20119;-78
2021/08/13 04:58:17;;;;;;;543.42;415.27;;;;;;;;;;5034656;28;20087;-78
2021/08/13 05:00:43;;;;;;;549.20;422.95;;;;;;;;;;5032896;28;20128;-78
2021/08/13 05:03:09;;;;;;;546.53;424.58;;;;;;;;;;5049128;28;20120;-77
2021/08/13 05:05:35;;;;;;;548.10;422.58;;;;;;;;;;5031291;28;20055;-77
2021/08/13 05:08:01;;;;;;;548.60;415.33;;;;;;;;;;5033053;28;20043;-78
2021/08/13 05:10:27;;;;;;;542.22;416.75;;;;;;;;;;5049672;28;20503;-78
2021/08/13 05:12:55;;;;;;;545.78;424.55;;;;;;;;;;5031522;28;20037;-77
2021/08/13 05:15:21;;;;;;;544.92;418.33;;;;;;;;;;5013768;28;20488;-78
2021/08/13 05:17:47;;;;;;;547.67;426.05;;;;;;;;;;5049351;28;20036;-78
2021/08/13 05:20:13;;;;;;;543.30;419.92;;;;;;;;;;5042550;28;20371;-77
2021/08/13 05:22:39;;;;;;;544.67;424.02;;;;;;;;;;5032303;28;20363;-79
2021/08/13 05:25:06;;;;;;;547.10;428.50;;;;;;;;;;5032111;28;20087;-78
2021/08/13 05:27:32;;;;;;;547.78;433.33;;;;;;;;;;5050054;28;20035;-78
2021/08/13 05:29:58;;;;;;;551.17;438.02;;;;;;;;;;5033377;28;20028;-77
2021/08/13 05:32:24;;;;;;;549.17;441.45;;;;;;;;;;5041766;28;20068;-77
2021/08/13 05:34:51;;;;;;;551.90;441.38;;;;;;;;;;5032267;28;20025;-77
2021/08/13 05:37:21;;;;;;;549.30;437.05;;;;;;;;;;5031842;28;20029;-77
2021/08/13 05:39:47;;;;;;;550.08;440.75;;;;;;;;;;5045846;28;20021;-78
2021/08/13 05:42:13;;;;;;;550.63;442.48;;;;;;;;;;5032702;28;20025;-78
2021/08/13 05:44:39;;;;;;;555.40;457.95;;;;;;;;;;5031691;28;20029;-78
2021/08/13 05:47:06;;;;;;;552.90;448.73;;;;;;;;;;5030265;28;20039;-77
2021/08/13 05:49:32;;;;;;;552.65;452.27;;;;;;;;;;5031963;28;20039;-77
2021/08/13 05:51:58;;;;;;;553.03;457.80;;;;;;;;;;5048781;28;20036;-78
2021/08/13 05:54:25;;;;;;;552.17;455.42;;;;;;;;;;5031747;28;20033;-77
2021/08/13 05:56:51;;;;;;;551.75;456.50;;;;;;;;;;5024485;28;20039;-78
2021/08/13 05:59:17;;;;;;;552.65;459.35;;;;;;;;;;5009055;28;20511;-78
2021/08/13 06:01:43;;;;;;;551.15;458.98;;;;;;;;;;5012758;28;20494;-78
2021/08/13 06:04:09;;;;;;;554.22;464.02;;;;;;;;;;5037326;28;20018;-78
2021/08/13 06:06:35;;;;;;;554.67;460.00;;;;;;;;;;5024454;28;20016;-78
2021/08/13 06:09:03;;;;;;;552.70;461.17;;;;;;;;;;5012996;28;20095;-77
2021/08/13 06:11:28;;;;;;;550.05;455.60;;;;;;;;;;5030192;28;20337;-78
2021/08/13 06:13:55;;;;;;;554.58;466.27;;;;;;;;;;5010330;28;20037;-78
2021/08/13 06:16:21;;;;;;;548.53;457.65;;;;;;;;;;5010439;28;20450;-78
2021/08/13 06:18:47;;;;;;;575.72;474.05;;;;;;;;;;5011457;28;20025;-78
2021/08/13 06:21:13;;;;;;;553.10;471.67;;;;;;;;;;5023852;28;20498;-77
2021/08/13 06:23:39;;;;;;;556.42;469.38;;;;;;;;;;4995828;28;20053;-78
2021/08/13 06:26:05;;;;;;;552.42;465.60;;;;;;;;;;5017480;28;20433;-77
2021/08/13 06:28:31;;;;;;;554.65;474.85;;;;;;;;;;5010845;28;20451;-78
2021/08/13 06:30:57;;;;;;;555.28;470.48;;;;;;;;;;5028635;28;20025;-78
2021/08/13 06:33:23;;;;;;;564.80;473.83;;;;;;;;;;5013014;28;20036;-78
2021/08/13 06:35:49;;;;;;;555.65;476.58;;;;;;;;;;5001674;28;20591;-78
2021/08/13 06:38:15;;;;;;;555.15;475.25;;;;;;;;;;5012041;28;20037;-78
2021/08/13 06:40:41;;;;;;;552.05;469.83;;;;;;;;;;5026059;28;20656;-78
2021/08/13 06:43:07;;;;;;;558.15;474.40;;;;;;;;;;5009019;28;20037;-82
2021/08/13 06:45:33;;;;;;;554.58;474.75;;;;;;;;;;5010572;28;20636;-79
2021/08/13 06:47:59;;;;;;;557.90;478.48;;;;;;;;;;5010069;28;20025;-78
2021/08/13 06:50:25;;;;;;;556.10;476.83;;;;;;;;;;5009376;28;20037;-79
2021/08/13 06:52:51;;;;;;;560.70;479.63;;;;;;;;;;5003019;28;20022;-78
2021/08/13 06:55:17;;;;;;;553.03;469.80;;;;;;;;;;4999128;28;20038;-80
2021/08/13 06:57:43;;;;;;;556.28;476.85;;;;;;;;;;5022136;28;20041;-78
2021/08/13 07:00:13;;;;;;;556.00;479.55;;;;;;;;;;5028936;28;20021;-78
2021/08/13 07:02:39;;;;;;;557.35;478.73;;;;;;;;;;5026885;28;20678;-79
2021/08/13 07:05:05;;;;;;;555.78;475.67;;;;;;;;;;5022002;28;20029;-79
2021/08/13 07:07:31;;;;;;;558.25;483.00;;;;;;;;;;5022151;28;20021;-78
2021/08/13 07:09:58;;;;;;;555.78;475.67;;;;;;;;;;5029536;28;20060;-77
2021/08/13 07:12:24;;;;;;;552.13;472.60;;;;;;;;;;5021361;28;20021;-76
2021/08/13 07:14:50;;;;;;;557.47;484.80;;;;;;;;;;5023575;28;20037;-76
2021/08/13 07:17:16;;;;;;;555.40;479.80;;;;;;;;;;5044453;28;20029;-77
2021/08/13 07:19:42;;;;;;;555.95;484.85;;;;;;;;;;5045614;28;20625;-76
2021/08/13 07:22:29;;;;;;;554.10;480.27;;;;;;;;;;5040344;28;20029;-83
2021/08/13 07:24:54;;;;;;;558.53;479.98;;;;;;;;;;5036787;28;20092;-77
2021/08/13 07:27:20;;;;;;;555.78;482.80;;;;;;;;;;5031990;28;20037;-78
2021/08/13 07:29:47;;;;;;;559.88;487.33;;;;;;;;;;5025143;28;20048;-77
2021/08/13 07:32:13;;;;;;;560.13;489.20;;;;;;;;;;5029539;28;20044;-77
2021/08/13 07:34:39;;;;;;;555.42;483.00;;;;;;;;;;5028488;28;20041;-76
2021/08/13 07:37:05;;;;;;;557.63;485.60;;;;;;;;;;5028102;28;20091;-77
2021/08/13 07:39:31;;;;;;;554.20;482.85;;;;;;;;;;5050466;28;20029;-77
2021/08/13 07:41:57;;;;;;;558.03;492.75;;;;;;;;;;5020826;28;20029;-77
2021/08/13 07:44:23;;;;;;;561.65;498.92;;;;;;;;;;5039729;28;20031;-78
2021/08/13 07:46:50;;;;;;;555.28;490.88;;;;;;;;;;5028512;28;20066;-77
2021/08/13 07:49:16;;;;;;;559.17;497.35;;;;;;;;;;5035065;28;20014;-77
2021/08/13 07:51:42;;;;;;;559.35;497.85;;;;;;;;;;5014900;28;20052;-82
2021/08/13 07:54:08;;;;;;;569.47;507.42;;;;;;;;;;5042923;28;20104;-78
2021/08/13 07:56:34;;;;;;;572.67;510.70;;;;;;;;;;5024244;28;20132;-78
2021/08/13 07:59:00;;;;;;;579.03;516.97;;;;;;;;;;5029406;28;20524;-77
2021/08/13 08:01:26;;;;;;;579.67;517.80;;;;;;;;;;5030708;28;20017;-78
2021/08/13 08:03:52;;;;;;;578.55;516.72;;;;;;;;;;5027897;28;20028;-78
2021/08/13 08:06:18;;;;;;;586.13;523.65;;;;;;;;;;5022692;28;20037;-78
2021/08/13 08:08:44;;;;;;;577.20;515.40;;;;;;;;;;5025681;28;20384;-78
2021/08/13 08:11:11;;;;;;;588.17;525.85;;;;;;;;;;5028771;28;20056;-75
2021/08/13 08:13:38;;;;;;;588.13;525.78;;;;;;;;;;5046896;28;20040;-75
2021/08/13 08:16:05;;;;;;;578.42;516.35;;;;;;;;;;5047452;28;20123;-79
2021/08/13 08:18:35;;;;;;;585.97;520.15;;;;;;;;;;5029474;28;20133;-76
2021/08/13 08:21:02;;;;;;;592.53;529.80;;;;;;;;;;5043155;28;20415;-79
2021/08/13 08:23:34;;;;;;;591.22;528.95;;;;;;;;;;5028951;28;20024;-78
2021/08/13 08:26:00;;;;;;;597.03;534.28;;;;;;;;;;5028653;28;20025;-78
2021/08/13 08:28:26;;;;;;;598.53;536.05;;;;;;;;;;5033553;28;20044;-75
2021/08/13 08:30:52;;;;;;;601.60;539.30;;;;;;;;;;5030380;28;20026;-76
2021/08/13 08:33:18;;;;;;;597.05;534.95;;;;;;;;;;5050787;28;20017;-74
2021/08/13 08:35:44;;;;;;;601.83;539.28;;;;;;;;;;5049429;28;20090;-75
2021/08/13 08:38:10;;;;;;;602.03;539.47;;;;;;;;;;5050935;28;20017;-74
2021/08/13 08:40:38;;;;;;;596.90;534.63;;;;;;;;;;5050264;28;20035;-75
2021/08/13 08:43:06;;;;;;;596.10;533.70;;;;;;;;;;5043194;28;20101;-74
2021/08/13 08:45:33;;;;;;;603.10;540.60;;;;;;;;;;5048233;28;20390;-74
2021/08/13 08:48:00;;;;;;;599.10;536.65;;;;;;;;;;5049810;28;20025;-79
2021/08/13 08:50:27;;;;;;;598.78;536.45;;;;;;;;;;5050475;28;20063;-77
2021/08/13 08:52:53;;;;;;;606.92;544.50;;;;;;;;;;5032308;28;20033;-77
2021/08/13 08:55:19;;;;;;;606.47;544.13;;;;;;;;;;5032980;28;20037;-77
2021/08/13 08:57:46;;;;;;;608.30;545.70;;;;;;;;;;5030747;28;20073;-80
2021/08/13 09:00:14;;;;;;;613.67;551.05;;;;;;;;;;5029834;28;20079;-79
2021/08/13 09:02:46;;;;;;;614.22;551.72;;;;;;;;;;5047835;28;20029;-80
2021/08/13 09:05:12;;;;;;;621.60;558.95;;;;;;;;;;5026369;28;20039;-79
2021/08/13 09:07:39;;;;;;;625.97;563.25;;;;;;;;;;5043483;28;20025;-79
2021/08/13 09:10:06;;;;;;;624.90;562.08;;;;;;;;;;5044571;28;20036;-78
2021/08/13 09:12:35;;;;;;;622.15;559.72;;;;;;;;;;5024173;28;20578;-78
2021/08/13 09:15:02;;;;;;;626.97;564.47;;;;;;;;;;5048316;28;20032;-78
2021/08/13 09:17:32;;;;;;;632.80;569.90;;;;;;;;;;5028762;28;20021;-77
2021/08/13 09:20:01;;;;;;;630.87;568.40;;;;;;;;;;5030368;28;20044;-78
2021/08/13 09:22:30;;;;;;;642.28;579.70;;;;;;;;;;5031865;28;20283;-80
2021/08/13 09:24:59;;;;;;;639.78;577.28;;;;;;;;;;5050876;28;20534;-79
2021/08/13 09:27:27;;;;;;;644.15;581.47;;;;;;;;;;5031594;28;20029;-80
2021/08/13 09:30:29;;;;;;;642.45;579.80;;;;;;;;;;5030057;28;20151;-86
2021/08/13 09:33:06;;;;;;;638.60;576.08;;;;;;;;;;4989332;28;20040;-84
2021/08/13 09:35:33;;;;;;;630.78;568.85;;;;;;;;;;5026629;28;20044;-79
2021/08/13 09:38:00;;;;;;;642.97;580.65;;;;;;;;;;5046935;28;20021;-78
2021/08/13 09:40:28;;;;;;;653.85;591.35;;;;;;;;;;5050853;28;20552;-79
2021/08/13 09:43:02;;;;;;;657.95;595.20;;;;;;;;;;5036032;28;20029;-79
2021/08/13 09:45:35;;;;;;;652.85;590.65;;;;;;;;;;5031261;28;20176;-80
2021/08/13 09:48:05;;;;;;;656.75;594.03;;;;;;;;;;5047161;28;20029;-80
2021/08/13 09:50:32;;;;;;;;;;;;;;;;;;5050408;28;20021;-80
2021/08/13 09:53:27;;;;;;;646.42;584.03;;;;;;;;;;5031859;28;20321;-80
2021/08/13 09:55:56;;;;;;;653.50;590.95;;;;;;;;;;5031160;28;20048;-75
2021/08/13 09:58:26;;;;;;;653.85;591.38;;;;;;;;;;5031864;28;20048;-75
2021/08/13 10:00:54;;;;;;;647.97;585.72;;;;;;;;;;5028807;28;20017;-75
2021/08/13 10:03:21;;;;;;;656.55;593.60;;;;;;;;;;5029610;28;20478;-76
2021/08/13 10:06:16;;;;;;;654.60;591.58;;;;;;;;;;5027120;28;20031;-75
2021/08/13 10:08:45;;;;;;;646.38;583.83;;;;;;;;;;5027635;28;20028;-76
2021/08/13 10:11:13;;;;;;;645.58;582.90;;;;;;;;;;5028293;28;20028;-76
2021/08/13 10:13:43;;;;;;;647.25;584.67;;;;;;;;;;5029251;28;20052;-75
2021/08/13 10:16:13;;;;;;;637.75;575.25;;;;;;;;;;5046998;28;20349;-75
2021/08/13 10:18:40;;;;;;;644.88;582.30;;;;;;;;;;5031556;28;20124;-75
2021/08/13 10:21:13;;;;;;;665.95;603.05;;;;;;;;;;5029844;28;20463;-75
2021/08/13 10:23:43;;;;;;;681.30;618.22;;;;;;;;;;5029958;28;20463;-74
2021/08/13 10:29:19;;;;;;;709.70;645.90;;;;;;;;;;5039582;28;20037;-77
2021/08/13 10:31:49;;;;;;;717.80;653.88;;;;;;;;;;5045704;28;20064;-77
2021/08/13 10:34:16;;;;;;;715.95;652.13;;;;;;;;;;5046260;28;20028;-77
2021/08/13 10:36:47;;;;;;;719.08;655.05;;;;;;;;;;5029290;28;20074;-77
2021/08/13 10:39:17;;;;;;;710.20;647.03;;;;;;;;;;5031267;28;20017;-77
2021/08/13 10:41:45;;;;;;;700.75;637.28;;;;;;;;;;5031237;28;20039;-78
2021/08/13 10:44:17;;;;;;;703.10;639.78;;;;;;;;;;5041925;28;20037;-77
2021/08/13 10:46:45;;;;;;;697.65;634.15;;;;;;;;;;5028520;28;20043;-80
2021/08/13 10:49:21;;;;;;;689.95;626.78;;;;;;;;;;5030140;28;20562;-78
2021/08/13 10:52:08;;;;;;;686.42;623.50;;;;;;;;;;5032131;28;20025;-77
2021/08/13 10:54:45;;;;;;;685.80;622.60;;;;;;;;;;5031855;28;20033;-78
2021/08/13 10:57:12;;;;;;;672.80;610.05;;;;;;;;;;5031229;28;20060;-77
2021/08/13 10:59:43;;;;;;;682.90;619.38;;;;;;;;;;5030339;28;20558;-78
2021/08/13 11:02:13;;;;;;;679.03;615.97;;;;;;;;;;5044581;28;20021;-77
2021/08/13 11:04:43;;;;;;;;;;;;;;;;;;5044903;28;20036;-78
2021/08/13 11:07:11;;;;;;;670.13;607.10;;;;;;;;;;5044265;28;19917;-75
2021/08/13 11:09:41;;;;;;;680.33;617.15;;;;;;;;;;5040831;28;20061;-74
2021/08/13 11:12:11;;;;;;;694.50;630.97;;;;;;;;;;5019439;28;20039;-76
2021/08/13 11:14:56;;;;;;;708.33;644.72;;;;;;;;;;5037535;28;20037;-76
2021/08/13 11:17:32;;;;;;;704.40;641.03;;;;;;;;;;5025973;28;20021;-75
2021/08/13 11:20:02;;;;;;;707.72;643.95;;;;;;;;;;5043601;28;20074;-76
2021/08/13 11:22:31;;;;;;;704.47;640.72;;;;;;;;;;5019463;28;20031;-76
2021/08/13 11:25:00;;;;;;;698.03;634.67;;;;;;;;;;5044018;28;20040;-75
2021/08/13 11:27:27;;;;;;;695.90;632.60;;;;;;;;;;5038979;28;20095;-75
2021/08/13 11:29:54;;;;;;;689.13;625.80;;;;;;;;;;5043300;28;20028;-78
2021/08/13 11:32:20;;;;;;;689.45;626.17;;;;;;;;;;5027177;28;20033;-75
2021/08/13 11:34:50;;;;;;;677.78;614.70;;;;;;;;;;5041507;28;20119;-74
2021/08/13 11:37:17;;;;;;;;;;;;;;;;;;5044225;28;20021;-75
2021/08/13 11:39:44;;;;;;;658.88;596.00;;;;;;;;;;5024594;28;19908;-80
2021/08/13 11:42:11;;;;;;;663.95;601.20;;;;;;;;;;5027337;28;20013;-76
2021/08/13 11:44:38;;;;;;;672.17;608.95;;;;;;;;;;5026221;28;20036;-78
2021/08/13 11:47:05;;;;;;;672.15;608.85;;;;;;;;;;5027716;28;20351;-76
2021/08/13 11:49:33;;;;;;;662.10;599.33;;;;;;;;;;5026715;28;20470;-80
2021/08/13 11:52:01;;;;;;;673.60;610.47;;;;;;;;;;5030372;28;20062;-79
2021/08/13 11:54:29;;;;;;;674.88;611.90;;;;;;;;;;5029428;28;20055;-78
2021/08/13 11:57:16;;;;;;;673.83;610.63;;;;;;;;;;5040230;28;20571;-79
2021/08/13 11:59:44;;;;;;;670.58;607.80;;;;;;;;;;5042132;28;20017;-78
2021/08/13 12:02:12;;;;;;;671.13;607.83;;;;;;;;;;5016796;28;20021;-78
2021/08/13 12:04:39;;;;;;;672.42;609.30;;;;;;;;;;5032472;28;20183;-76
2021/08/13 12:07:13;;;;;;;667.78;604.72;;;;;;;;;;5034026;28;20032;-75
2021/08/13 12:09:41;;;;;;;657.83;594.83;;;;;;;;;;5043113;28;20025;-77
2021/08/13 12:12:10;;;;;;;659.28;596.13;;;;;;;;;;5051872;28;20115;-76
2021/08/13 12:14:39;;;;;;;661.10;597.80;;;;;;;;;;5031109;28;20039;-75
2021/08/13 12:17:10;;;;;;;656.50;593.38;;;;;;;;;;5051892;28;20487;-76
2021/08/13 12:19:37;;;;;;;651.90;588.90;;;;;;;;;;5032899;28;20025;-77
2021/08/13 12:22:09;;;;;;;650.63;587.78;;;;;;;;;;5033070;28;20043;-76
2021/08/13 12:24:39;;;;;;;655.35;592.15;;;;;;;;;;5032919;28;20060;-75
2021/08/13 12:27:09;;;;;;;;;;;;;;;;;;5032287;28;20055;-77
2021/08/13 12:29:37;;;;;;;623.70;561.03;;;;;;;;;;5033954;28;20081;-80
2021/08/13 12:32:05;;;;;;;640.50;577.47;;;;;;;;;;5016699;28;20041;-80
2021/08/13 12:34:33;;;;;;;637.15;574.55;;;;;;;;;;5033851;28;20021;-80
2021/08/13 12:37:08;;;;;;;649.30;586.53;;;;;;;;;;5033269;28;20072;-74
2021/08/13 12:39:38;;;;;;;639.40;576.72;;;;;;;;;;5032671;28;20047;-75
2021/08/13 12:42:07;;;;;;;;;;;;;;;;;;5030551;28;20033;-78
2021/08/13 12:44:41;;;;;;;628.22;565.55;;;;;;;;;;5022205;28;19947;-76
2021/08/13 12:47:08;;;;;;;644.90;581.40;;;;;;;;;;5043412;28;20130;-76
2021/08/13 12:49:41;;;;;;;654.03;590.47;;;;;;;;;;5028790;28;20036;-77
2021/08/13 12:52:10;;;;;;;657.25;593.85;;;;;;;;;;5028614;28;20025;-78
2021/08/13 12:54:37;;;;;;;650.80;587.67;;;;;;;;;;5045811;28;20057;-77
2021/08/13 12:57:03;;;;;;;661.40;598.10;;;;;;;;;;5025868;28;20307;-79
2021/08/13 12:59:33;;;;;;;665.60;602.40;;;;;;;;;;5031717;28;20083;-78
2021/08/13 13:01:59;;;;;;;671.40;608.08;;;;;;;;;;5026908;28;20081;-79
2021/08/13 13:04:55;;;;;;;663.75;600.88;;;;;;;;;;5032158;28;20059;-78
2021/08/13 13:07:37;;;;;;;658.47;595.60;;;;;;;;;;5024135;28;20079;-78
2021/08/13 13:10:14;;;;;;;657.72;594.78;;;;;;;;;;5031990;28;20021;-78
2021/08/13 13:12:40;;;;;;;657.28;593.85;;;;;;;;;;5045251;28;20557;-78
2021/08/13 13:15:07;;;;;;;653.22;589.88;;;;;;;;;;5032693;28;20041;-78
2021/08/13 13:17:33;;;;;;;651.20;587.75;;;;;;;;;;5048814;28;20522;-78
2021/08/13 13:20:12;;;;;;;645.53;582.40;;;;;;;;;;5033422;28;20029;-78
2021/08/13 13:22:40;;;;;;;642.75;579.45;;;;;;;;;;5031314;28;20032;-78
2021/08/13 13:25:10;;;;;;;647.05;583.75;;;;;;;;;;5032792;28;20025;-78
2021/08/13 13:28:09;;;;;;;646.42;582.80;;;;;;;;;;5031502;28;20025;-78
2021/08/13 13:30:39;;;;;;;639.88;576.72;;;;;;;;;;4978230;28;20057;-78
2021/08/13 13:33:09;;;;;;;642.03;578.70;;;;;;;;;;5030192;28;20654;-78
2021/08/13 13:35:36;;;;;;;647.80;584.13;;;;;;;;;;5046342;28;20370;-76
2021/08/13 13:38:04;;;;;;;644.38;581.30;;;;;;;;;;5047678;28;20512;-77
2021/08/13 13:40:31;;;;;;;642.17;579.08;;;;;;;;;;5048413;28;20029;-77
2021/08/13 13:42:57;;;;;;;640.22;577.08;;;;;;;;;;5048608;28;20094;-77
2021/08/13 13:45:26;;;;;;;644.20;579.38;;;;;;;;;;5030164;28;20504;-84
2021/08/13 13:47:56;;;;;;;645.53;581.70;;;;;;;;;;5043469;28;20037;-82
2021/08/13 13:50:29;;;;;;;634.67;571.65;;;;;;;;;;5028884;28;20567;-79
2021/08/13 13:52:57;;;;;;;641.75;578.50;;;;;;;;;;5031598;28;20198;-83
2021/08/13 13:55:25;;;;;;;641.05;577.72;;;;;;;;;;5029639;28;20379;-84
2021/08/13 13:57:52;;;;;;;646.75;582.85;;;;;;;;;;5031877;28;20613;-76
2021/08/13 14:00:18;;;;;;;640.05;575.20;;;;;;;;;;5042261;28;20021;-75
2021/08/13 14:02:44;;;;;;;635.92;572.88;;;;;;;;;;5045699;28;20029;-77